Terminal Aerodrome Forecast
Issued by NWS

Home | Current Version | Previous Version | Text Only | Print | Product List | Glossary On
Versions: 1 2 3 4 5 6 7 8 9 10 11 12 13 14 15 16
000
FTUS41 KPBZ 261100
TAFZZV
TAF
KZZV 261125Z 2612/2712 22010KT P6SM SCT050 BKN080
     FM270200 21004KT P6SM VCSH BKN050
     FM270900 22005KT 6SM -SHRA VCTS OVC030CB=

USA.gov is the U.S. government's official web portal to all federal, state and local government web resources and services.